sensor_id;sensor_type;location;lat;lon;timestamp;pressure;altitude;pressure_sealevel;temperature;humidity
38289;BME280;24092;53.370;-6.588;2023-02-24T00:01:56;101563.08;;;3.75;100.00
38289;BME280;24092;53.370;-6.588;2023-02-24T00:04:23;101554.90;;;3.63;100.00
38289;BME280;24092;53.370;-6.588;2023-02-24T00:06:50;101552.00;;;3.64;100.00
38289;BME280;24092;53.370;-6.588;2023-02-24T00:09:20;101547.14;;;3.93;100.00
38289;BME280;24092;53.370;-6.588;2023-02-24T00:11:52;101546.07;;;3.72;100.00
38289;BME280;24092;53.370;-6.588;2023-02-24T00:14:21;101546.91;;;3.07;100.00
38289;BME280;24092;53.370;-6.588;2023-02-24T00:16:49;101547.14;;;2.96;100.00
38289;BME280;24092;53.370;-6.588;2023-02-24T00:19:19;101547.82;;;3.19;100.00
38289;BME280;24092;53.370;-6.588;2023-02-24T00:21:47;101552.80;;;3.28;100.00
38289;BME280;24092;53.370;-6.588;2023-02-24T00:24:15;101551.63;;;4.05;100.00
38289;BME280;24092;53.370;-6.588;2023-02-24T00:26:42;101550.07;;;4.23;100.00
38289;BME280;24092;53.370;-6.588;2023-02-24T00:29:11;101544.18;;;4.61;100.00
38289;BME280;24092;53.370;-6.588;2023-02-24T00:31:38;101546.19;;;4.47;100.00
38289;BME280;24092;53.370;-6.588;2023-02-24T00:34:06;101540.99;;;4.33;100.00
38289;BME280;24092;53.370;-6.588;2023-02-24T00:36:34;101544.28;;;3.90;100.00
38289;BME280;24092;53.370;-6.588;2023-02-24T00:39:03;101542.96;;;4.02;100.00
38289;BME280;24092;53.370;-6.588;2023-02-24T00:41:31;101538.48;;;3.94;100.00
38289;BME280;24092;53.370;-6.588;2023-02-24T00:44:01;101540.32;;;3.88;100.00
38289;BME280;24092;53.370;-6.588;2023-02-24T00:46:28;101537.38;;;4.00;100.00
38289;BME280;24092;53.370;-6.588;2023-02-24T00:48:55;101529.31;;;4.19;100.00
38289;BME280;24092;53.370;-6.588;2023-02-24T00:51:24;101527.93;;;4.70;100.00
38289;BME280;24092;53.370;-6.588;2023-02-24T00:53:53;101523.48;;;3.95;100.00
38289;BME280;24092;53.370;-6.588;2023-02-24T00:56:22;101524.59;;;4.38;100.00
38289;BME280;24092;53.370;-6.588;2023-02-24T00:58:49;101522.80;;;4.23;100.00
38289;BME280;24092;53.370;-6.588;2023-02-24T01:01:18;101524.01;;;3.86;100.00
38289;BME280;24092;53.370;-6.588;2023-02-24T01:03:48;101527.09;;;4.04;100.00
38289;BME280;24092;53.370;-6.588;2023-02-24T01:06:17;101519.31;;;4.45;100.00
38289;BME280;24092;53.370;-6.588;2023-02-24T01:08:45;101512.02;;;4.19;100.00
38289;BME280;24092;53.370;-6.588;2023-02-24T01:11:13;101505.75;;;3.36;100.00
38289;BME280;24092;53.370;-6.588;2023-02-24T01:13:41;101505.30;;;3.42;100.00
38289;BME280;24092;53.370;-6.588;2023-02-24T01:16:08;101504.47;;;3.54;100.00
38289;BME280;24092;53.370;-6.588;2023-02-24T01:18:35;101502.49;;;3.77;100.00
38289;BME280;24092;53.370;-6.588;2023-02-24T01:21:03;101504.09;;;4.32;100.00
38289;BME280;24092;53.370;-6.588;2023-02-24T01:23:30;101504.96;;;4.61;100.00
38289;BME280;24092;53.370;-6.588;2023-02-24T01:25:57;101497.98;;;4.68;100.00
38289;BME280;24092;53.370;-6.588;2023-02-24T01:28:24;101490.54;;;3.93;100.00
38289;BME280;24092;53.370;-6.588;2023-02-24T01:30:52;101485.65;;;3.70;100.00
38289;BME280;24092;53.370;-6.588;2023-02-24T01:33:20;101480.07;;;3.35;100.00
38289;BME280;24092;53.370;-6.588;2023-02-24T01:35:47;101477.58;;;3.38;100.00
38289;BME280;24092;53.370;-6.588;2023-02-24T01:38:14;101478.46;;;3.43;100.00
38289;BME280;24092;53.370;-6.588;2023-02-24T01:40:41;101471.51;;;3.56;100.00
38289;BME280;24092;53.370;-6.588;2023-02-24T01:43:09;101472.79;;;3.69;100.00
38289;BME280;24092;53.370;-6.588;2023-02-24T01:45:37;101472.85;;;4.13;100.00
38289;BME280;24092;53.370;-6.588;2023-02-24T01:48:06;101475.56;;;3.90;100.00
38289;BME280;24092;53.370;-6.588;2023-02-24T01:50:34;101474.06;;;4.04;100.00
38289;BME280;24092;53.370;-6.588;2023-02-24T01:53:05;101471.28;;;3.29;100.00
38289;BME280;24092;53.370;-6.588;2023-02-24T01:55:37;101461.09;;;3.04;100.00
38289;BME280;24092;53.370;-6.588;2023-02-24T01:58:12;101467.87;;;3.50;100.00
38289;BME280;24092;53.370;-6.588;2023-02-24T02:00:42;101465.41;;;3.91;100.00
38289;BME280;24092;53.370;-6.588;2023-02-24T02:03:16;101469.33;;;3.27;100.00
38289;BME280;24092;53.370;-6.588;2023-02-24T02:05:44;101460.40;;;3.37;100.00
38289;BME280;24092;53.370;-6.588;2023-02-24T02:08:13;101449.89;;;3.58;100.00
38289;BME280;24092;53.370;-6.588;2023-02-24T02:10:41;101452.35;;;4.14;100.00
38289;BME280;24092;53.370;-6.588;2023-02-24T02:13:10;101457.52;;;4.16;100.00
38289;BME280;24092;53.370;-6.588;2023-02-24T02:15:46;101457.06;;;4.12;100.00
38289;BME280;24092;53.370;-6.588;2023-02-24T02:18:21;101449.92;;;4.33;100.00
38289;BME280;24092;53.370;-6.588;2023-02-24T02:21:20;101438.71;;;4.02;100.00
38289;BME280;24092;53.370;-6.588;2023-02-24T02:23:58;101426.41;;;3.81;100.00
38289;BME280;24092;53.370;-6.588;2023-02-24T02:26:50;101425.08;;;4.12;100.00
38289;BME280;24092;53.370;-6.588;2023-02-24T02:29:34;101423.31;;;4.51;100.00
38289;BME280;24092;53.370;-6.588;2023-02-24T02:32:40;101422.66;;;3.94;100.00
38289;BME280;24092;53.370;-6.588;2023-02-24T02:35:11;101417.87;;;3.99;100.00
38289;BME280;24092;53.370;-6.588;2023-02-24T02:37:48;101418.22;;;4.76;100.00
38289;BME280;24092;53.370;-6.588;2023-02-24T02:40:24;101414.01;;;4.12;100.00
38289;BME280;24092;53.370;-6.588;2023-02-24T02:42:58;101414.62;;;4.18;100.00
38289;BME280;24092;53.370;-6.588;2023-02-24T02:45:32;101413.93;;;4.29;100.00
38289;BME280;24092;53.370;-6.588;2023-02-24T02:48:06;101410.51;;;4.24;100.00
38289;BME280;24092;53.370;-6.588;2023-02-24T02:50:40;101401.47;;;4.28;100.00
38289;BME280;24092;53.370;-6.588;2023-02-24T02:53:15;101400.21;;;3.79;100.00
38289;BME280;24092;53.370;-6.588;2023-02-24T02:55:48;101395.52;;;3.30;100.00
38289;BME280;24092;53.370;-6.588;2023-02-24T02:58:21;101395.57;;;2.89;100.00
38289;BME280;24092;53.370;-6.588;2023-02-24T03:00:53;101390.78;;;2.64;100.00
38289;BME280;24092;53.370;-6.588;2023-02-24T03:03:21;101390.75;;;2.33;100.00
38289;BME280;24092;53.370;-6.588;2023-02-24T03:05:53;101385.88;;;2.12;100.00
38289;BME280;24092;53.370;-6.588;2023-02-24T03:08:25;101383.05;;;2.25;100.00
38289;BME280;24092;53.370;-6.588;2023-02-24T03:10:57;101381.63;;;2.76;100.00
38289;BME280;24092;53.370;-6.588;2023-02-24T03:13:27;101375.99;;;2.33;100.00
38289;BME280;24092;53.370;-6.588;2023-02-24T03:16:01;101378.79;;;2.61;100.00
38289;BME280;24092;53.370;-6.588;2023-02-24T03:18:32;101380.36;;;2.56;100.00
38289;BME280;24092;53.370;-6.588;2023-02-24T03:21:05;101373.66;;;3.01;100.00
38289;BME280;24092;53.370;-6.588;2023-02-24T03:23:36;101381.43;;;2.64;100.00
38289;BME280;24092;53.370;-6.588;2023-02-24T03:26:08;101379.89;;;3.00;100.00
38289;BME280;24092;53.370;-6.588;2023-02-24T03:28:39;101381.26;;;2.73;100.00
38289;BME280;24092;53.370;-6.588;2023-02-24T03:31:12;101379.24;;;2.40;100.00
38289;BME280;24092;53.370;-6.588;2023-02-24T03:33:45;101365.16;;;1.71;100.00
38289;BME280;24092;53.370;-6.588;2023-02-24T03:36:17;101363.85;;;1.55;100.00
38289;BME280;24092;53.370;-6.588;2023-02-24T03:38:46;101361.11;;;1.46;100.00
38289;BME280;24092;53.370;-6.588;2023-02-24T03:41:14;101359.44;;;1.63;100.00
38289;BME280;24092;53.370;-6.588;2023-02-24T03:43:43;101354.84;;;1.38;100.00
38289;BME280;24092;53.370;-6.588;2023-02-24T03:46:13;101357.03;;;2.04;100.00
38289;BME280;24092;53.370;-6.588;2023-02-24T03:48:44;101355.25;;;2.09;100.00
38289;BME280;24092;53.370;-6.588;2023-02-24T03:51:15;101359.72;;;2.50;100.00
38289;BME280;24092;53.370;-6.588;2023-02-24T03:53:55;101355.88;;;2.63;100.00
38289;BME280;24092;53.370;-6.588;2023-02-24T03:56:33;101341.45;;;2.54;100.00
38289;BME280;24092;53.370;-6.588;2023-02-24T03:59:12;101345.36;;;2.61;100.00
38289;BME280;24092;53.370;-6.588;2023-02-24T04:01:46;101344.69;;;3.39;100.00
38289;BME280;24092;53.370;-6.588;2023-02-24T04:04:19;101344.48;;;2.84;100.00
38289;BME280;24092;53.370;-6.588;2023-02-24T04:06:54;101348.63;;;3.04;100.00
38289;BME280;24092;53.370;-6.588;2023-02-24T04:09:28;101347.95;;;3.38;100.00
38289;BME280;24092;53.370;-6.588;2023-02-24T04:12:06;101339.43;;;3.48;100.00
38289;BME280;24092;53.370;-6.588;2023-02-24T04:14:42;101334.71;;;3.09;100.00
38289;BME280;24092;53.370;-6.588;2023-02-24T04:17:16;101320.97;;;2.38;100.00
38289;BME280;24092;53.370;-6.588;2023-02-24T04:19:48;101320.70;;;2.20;100.00
38289;BME280;24092;53.370;-6.588;2023-02-24T04:22:18;101321.06;;;2.65;100.00
38289;BME280;24092;53.370;-6.588;2023-02-24T04:24:49;101312.46;;;2.53;100.00
38289;BME280;24092;53.370;-6.588;2023-02-24T04:27:18;101314.86;;;2.20;100.00
38289;BME280;24092;53.370;-6.588;2023-02-24T04:29:51;101312.27;;;2.13;100.00
38289;BME280;24092;53.370;-6.588;2023-02-24T04:32:22;101306.12;;;1.59;100.00
38289;BME280;24092;53.370;-6.588;2023-02-24T04:34:51;101309.01;;;1.84;100.00
38289;BME280;24092;53.370;-6.588;2023-02-24T04:37:19;101302.40;;;1.72;100.00
38289;BME280;24092;53.370;-6.588;2023-02-24T04:39:47;101300.63;;;1.96;100.00
38289;BME280;24092;53.370;-6.588;2023-02-24T04:42:15;101299.83;;;1.77;100.00
38289;BME280;24092;53.370;-6.588;2023-02-24T04:44:42;101294.57;;;2.28;100.00
38289;BME280;24092;53.370;-6.588;2023-02-24T04:47:10;101289.87;;;2.24;100.00
38289;BME280;24092;53.370;-6.588;2023-02-24T04:49:37;101286.20;;;2.51;100.00
38289;BME280;24092;53.370;-6.588;2023-02-24T04:52:04;101287.46;;;1.67;100.00
38289;BME280;24092;53.370;-6.588;2023-02-24T04:54:32;101290.60;;;1.93;100.00
38289;BME280;24092;53.370;-6.588;2023-02-24T04:57:00;101286.26;;;1.62;100.00
38289;BME280;24092;53.370;-6.588;2023-02-24T04:59:27;101285.54;;;2.26;100.00
38289;BME280;24092;53.370;-6.588;2023-02-24T05:01:54;101289.11;;;2.03;100.00
38289;BME280;24092;53.370;-6.588;2023-02-24T05:04:21;101290.79;;;2.46;100.00
38289;BME280;24092;53.370;-6.588;2023-02-24T05:06:48;101281.50;;;2.50;100.00
38289;BME280;24092;53.370;-6.588;2023-02-24T05:09:16;101276.97;;;3.23;100.00
38289;BME280;24092;53.370;-6.588;2023-02-24T05:11:46;101274.68;;;2.90;100.00
38289;BME280;24092;53.370;-6.588;2023-02-24T05:14:15;101279.65;;;2.83;100.00
38289;BME280;24092;53.370;-6.588;2023-02-24T05:16:42;101282.31;;;3.34;100.00
38289;BME280;24092;53.370;-6.588;2023-02-24T05:19:10;101288.63;;;3.77;100.00
38289;BME280;24092;53.370;-6.588;2023-02-24T05:21:38;101290.34;;;3.18;100.00
38289;BME280;24092;53.370;-6.588;2023-02-24T05:24:06;101291.71;;;2.94;100.00
38289;BME280;24092;53.370;-6.588;2023-02-24T05:26:35;101285.64;;;3.20;100.00
38289;BME280;24092;53.370;-6.588;2023-02-24T05:29:04;101284.08;;;3.13;100.00
38289;BME280;24092;53.370;-6.588;2023-02-24T05:31:32;101287.15;;;2.69;100.00
38289;BME280;24092;53.370;-6.588;2023-02-24T05:34:01;101291.77;;;3.18;100.00
38289;BME280;24092;53.370;-6.588;2023-02-24T05:36:30;101287.42;;;3.17;100.00
38289;BME280;24092;53.370;-6.588;2023-02-24T05:38:57;101286.76;;;3.14;100.00
38289;BME280;24092;53.370;-6.588;2023-02-24T05:41:25;101281.06;;;2.88;100.00
38289;BME280;24092;53.370;-6.588;2023-02-24T05:43:54;101283.87;;;2.83;100.00
38289;BME280;24092;53.370;-6.588;2023-02-24T05:46:23;101282.88;;;2.96;100.00
38289;BME280;24092;53.370;-6.588;2023-02-24T05:48:51;101273.72;;;3.12;100.00
38289;BME280;24092;53.370;-6.588;2023-02-24T05:51:18;101264.88;;;2.16;100.00
38289;BME280;24092;53.370;-6.588;2023-02-24T05:53:45;101274.83;;;2.67;100.00
38289;BME280;24092;53.370;-6.588;2023-02-24T05:56:12;101273.15;;;3.09;100.00
38289;BME280;24092;53.370;-6.588;2023-02-24T05:58:39;101277.09;;;3.28;100.00
38289;BME280;24092;53.370;-6.588;2023-02-24T06:01:10;101278.56;;;4.36;100.00
38289;BME280;24092;53.370;-6.588;2023-02-24T06:03:38;101275.01;;;4.56;100.00
38289;BME280;24092;53.370;-6.588;2023-02-24T06:06:05;101276.19;;;4.53;100.00
38289;BME280;24092;53.370;-6.588;2023-02-24T06:08:32;101275.78;;;5.01;100.00
38289;BME280;24092;53.370;-6.588;2023-02-24T06:10:59;101269.58;;;5.34;100.00
38289;BME280;24092;53.370;-6.588;2023-02-24T06:13:26;101268.03;;;4.86;100.00
38289;BME280;24092;53.370;-6.588;2023-02-24T06:15:54;101268.77;;;4.03;100.00
38289;BME280;24092;53.370;-6.588;2023-02-24T06:18:21;101264.63;;;4.29;100.00
38289;BME280;24092;53.370;-6.588;2023-02-24T06:20:48;101276.62;;;2.90;100.00
38289;BME280;24092;53.370;-6.588;2023-02-24T06:23:15;101273.81;;;4.40;100.00
38289;BME280;24092;53.370;-6.588;2023-02-24T06:25:42;101269.15;;;4.26;100.00
38289;BME280;24092;53.370;-6.588;2023-02-24T06:28:09;101269.67;;;4.43;100.00
38289;BME280;24092;53.370;-6.588;2023-02-24T06:30:37;101268.65;;;4.82;100.00
38289;BME280;24092;53.370;-6.588;2023-02-24T06:33:04;101267.69;;;4.41;100.00
38289;BME280;24092;53.370;-6.588;2023-02-24T06:35:30;101265.93;;;4.79;100.00
38289;BME280;24092;53.370;-6.588;2023-02-24T06:37:58;101262.96;;;4.13;100.00
38289;BME280;24092;53.370;-6.588;2023-02-24T06:40:25;101259.76;;;5.60;100.00
38289;BME280;24092;53.370;-6.588;2023-02-24T06:42:52;101251.57;;;6.14;100.00
38289;BME280;24092;53.370;-6.588;2023-02-24T06:45:20;101255.65;;;5.66;100.00
38289;BME280;24092;53.370;-6.588;2023-02-24T06:47:48;101256.43;;;5.80;100.00
38289;BME280;24092;53.370;-6.588;2023-02-24T06:50:16;101256.78;;;5.87;100.00
38289;BME280;24092;53.370;-6.588;2023-02-24T06:52:45;101252.17;;;6.40;100.00
38289;BME280;24092;53.370;-6.588;2023-02-24T06:55:12;101253.30;;;6.12;100.00
38289;BME280;24092;53.370;-6.588;2023-02-24T06:57:39;101254.12;;;5.50;100.00
38289;BME280;24092;53.370;-6.588;2023-02-24T07:00:08;101250.37;;;5.87;100.00
38289;BME280;24092;53.370;-6.588;2023-02-24T07:02:36;101247.46;;;6.05;100.00
38289;BME280;24092;53.370;-6.588;2023-02-24T07:05:04;101249.36;;;5.58;100.00
38289;BME280;24092;53.370;-6.588;2023-02-24T07:07:31;101248.28;;;6.29;100.00
38289;BME280;24092;53.370;-6.588;2023-02-24T07:09:58;101250.48;;;4.85;100.00
38289;BME280;24092;53.370;-6.588;2023-02-24T07:12:25;101244.83;;;4.20;100.00
38289;BME280;24092;53.370;-6.588;2023-02-24T07:14:52;101242.31;;;4.40;100.00
38289;BME280;24092;53.370;-6.588;2023-02-24T07:17:19;101239.45;;;4.63;100.00
38289;BME280;24092;53.370;-6.588;2023-02-24T07:19:47;101233.81;;;3.51;100.00
38289;BME280;24092;53.370;-6.588;2023-02-24T07:22:14;101236.19;;;4.52;100.00
38289;BME280;24092;53.370;-6.588;2023-02-24T07:24:42;101238.52;;;3.17;100.00
38289;BME280;24092;53.370;-6.588;2023-02-24T07:27:11;101240.20;;;2.99;100.00
38289;BME280;24092;53.370;-6.588;2023-02-24T07:29:39;101239.16;;;5.41;100.00
38289;BME280;24092;53.370;-6.588;2023-02-24T07:32:07;101241.29;;;4.29;100.00
38289;BME280;24092;53.370;-6.588;2023-02-24T07:34:34;101241.32;;;4.30;100.00
38289;BME280;24092;53.370;-6.588;2023-02-24T07:37:02;101240.86;;;5.03;100.00
38289;BME280;24092;53.370;-6.588;2023-02-24T07:39:29;101242.27;;;5.23;100.00
38289;BME280;24092;53.370;-6.588;2023-02-24T07:41:57;101239.88;;;5.72;100.00
38289;BME280;24092;53.370;-6.588;2023-02-24T07:44:25;101234.83;;;5.57;100.00
38289;BME280;24092;53.370;-6.588;2023-02-24T07:46:52;101234.96;;;5.48;100.00
38289;BME280;24092;53.370;-6.588;2023-02-24T07:49:20;101238.16;;;5.38;100.00
38289;BME280;24092;53.370;-6.588;2023-02-24T07:51:49;101234.02;;;4.71;100.00
38289;BME280;24092;53.370;-6.588;2023-02-24T07:54:16;101236.07;;;5.50;100.00
38289;BME280;24092;53.370;-6.588;2023-02-24T07:56:43;101231.39;;;5.59;100.00
38289;BME280;24092;53.370;-6.588;2023-02-24T07:59:11;101227.61;;;5.18;100.00
38289;BME280;24092;53.370;-6.588;2023-02-24T08:01:38;101227.41;;;4.18;100.00
38289;BME280;24092;53.370;-6.588;2023-02-24T08:04:07;101226.15;;;4.27;100.00
38289;BME280;24092;53.370;-6.588;2023-02-24T08:06:36;101225.70;;;5.60;100.00
38289;BME280;24092;53.370;-6.588;2023-02-24T08:09:05;101226.22;;;5.11;100.00
38289;BME280;24092;53.370;-6.588;2023-02-24T08:11:33;101226.66;;;4.90;100.00
38289;BME280;24092;53.370;-6.588;2023-02-24T08:13:59;101232.30;;;5.65;100.00
38289;BME280;24092;53.370;-6.588;2023-02-24T08:16:27;101228.78;;;5.13;100.00
38289;BME280;24092;53.370;-6.588;2023-02-24T08:18:53;101229.57;;;5.36;100.00
38289;BME280;24092;53.370;-6.588;2023-02-24T08:21:20;101227.03;;;5.71;100.00
38289;BME280;24092;53.370;-6.588;2023-02-24T08:23:48;101237.19;;;5.25;100.00
38289;BME280;24092;53.370;-6.588;2023-02-24T08:26:15;101236.50;;;5.87;100.00
38289;BME280;24092;53.370;-6.588;2023-02-24T08:28:42;101239.81;;;6.47;100.00
38289;BME280;24092;53.370;-6.588;2023-02-24T08:31:09;101240.17;;;5.95;100.00
38289;BME280;24092;53.370;-6.588;2023-02-24T08:33:35;101240.42;;;6.13;100.00
38289;BME280;24092;53.370;-6.588;2023-02-24T08:36:03;101245.79;;;5.77;100.00
38289;BME280;24092;53.370;-6.588;2023-02-24T08:38:32;101246.76;;;6.18;100.00
38289;BME280;24092;53.370;-6.588;2023-02-24T08:41:01;101248.15;;;5.22;100.00
38289;BME280;24092;53.370;-6.588;2023-02-24T08:43:29;101251.21;;;5.46;100.00
38289;BME280;24092;53.370;-6.588;2023-02-24T08:46:00;101246.36;;;5.95;100.00
38289;BME280;24092;53.370;-6.588;2023-02-24T08:48:29;101246.90;;;4.49;100.00
38289;BME280;24092;53.370;-6.588;2023-02-24T08:51:00;101244.34;;;4.60;100.00
38289;BME280;24092;53.370;-6.588;2023-02-24T08:53:28;101238.87;;;5.78;100.00
38289;BME280;24092;53.370;-6.588;2023-02-24T08:55:55;101236.04;;;5.56;100.00
38289;BME280;24092;53.370;-6.588;2023-02-24T08:58:22;101224.64;;;3.75;100.00
38289;BME280;24092;53.370;-6.588;2023-02-24T09:00:49;101221.65;;;4.16;100.00
38289;BME280;24092;53.370;-6.588;2023-02-24T09:03:17;101224.67;;;4.82;100.00
38289;BME280;24092;53.370;-6.588;2023-02-24T09:05:45;101220.58;;;4.41;100.00
38289;BME280;24092;53.370;-6.588;2023-02-24T09:08:12;101219.28;;;4.28;100.00
38289;BME280;24092;53.370;-6.588;2023-02-24T09:10:38;101218.36;;;4.34;100.00
38289;BME280;24092;53.370;-6.588;2023-02-24T09:13:05;101221.79;;;3.56;100.00
38289;BME280;24092;53.370;-6.588;2023-02-24T09:15:32;101218.44;;;4.44;100.00
38289;BME280;24092;53.370;-6.588;2023-02-24T09:18:00;101217.06;;;4.01;100.00
38289;BME280;24092;53.370;-6.588;2023-02-24T09:20:27;101216.55;;;4.46;100.00
38289;BME280;24092;53.370;-6.588;2023-02-24T09:22:55;101218.44;;;5.22;100.00
38289;BME280;24092;53.370;-6.588;2023-02-24T09:25:25;101217.83;;;4.94;100.00
38289;BME280;24092;53.370;-6.588;2023-02-24T09:27:54;101218.03;;;5.78;100.00
38289;BME280;24092;53.370;-6.588;2023-02-24T09:30:24;101221.46;;;6.21;100.00
38289;BME280;24092;53.370;-6.588;2023-02-24T09:32:52;101221.49;;;6.29;100.00
38289;BME280;24092;53.370;-6.588;2023-02-24T09:35:19;101222.24;;;5.54;100.00
38289;BME280;24092;53.370;-6.588;2023-02-24T09:37:46;101216.86;;;5.48;100.00
38289;BME280;24092;53.370;-6.588;2023-02-24T09:40:13;101211.67;;;5.83;100.00
38289;BME280;24092;53.370;-6.588;2023-02-24T09:42:40;101209.66;;;5.71;100.00
38289;BME280;24092;53.370;-6.588;2023-02-24T09:45:13;101210.41;;;4.95;100.00
38289;BME280;24092;53.370;-6.588;2023-02-24T09:47:43;101203.03;;;6.43;100.00
38289;BME280;24092;53.370;-6.588;2023-02-24T09:50:25;101203.58;;;6.74;100.00
38289;BME280;24092;53.370;-6.588;2023-02-24T09:52:57;101200.33;;;5.66;100.00
38289;BME280;24092;53.370;-6.588;2023-02-24T09:55:33;101198.19;;;5.41;100.00
38289;BME280;24092;53.370;-6.588;2023-02-24T09:58:13;101200.90;;;4.68;100.00
38289;BME280;24092;53.370;-6.588;2023-02-24T10:00:54;101205.01;;;4.97;100.00
38289;BME280;24092;53.370;-6.588;2023-02-24T10:03:27;101206.10;;;5.37;100.00
38289;BME280;24092;53.370;-6.588;2023-02-24T10:06:01;101205.85;;;6.58;100.00
38289;BME280;24092;53.370;-6.588;2023-02-24T10:08:34;101215.06;;;5.02;100.00
38289;BME280;24092;53.370;-6.588;2023-02-24T10:11:02;101212.10;;;5.31;100.00
38289;BME280;24092;53.370;-6.588;2023-02-24T10:13:30;101209.30;;;6.20;100.00
38289;BME280;24092;53.370;-6.588;2023-02-24T10:15:59;101207.51;;;4.24;100.00
38289;BME280;24092;53.370;-6.588;2023-02-24T10:18:31;101203.96;;;4.85;100.00
38289;BME280;24092;53.370;-6.588;2023-02-24T10:21:08;101198.42;;;5.62;100.00
38289;BME280;24092;53.370;-6.588;2023-02-24T10:23:48;101190.70;;;4.67;100.00
38289;BME280;24092;53.370;-6.588;2023-02-24T10:26:20;101189.54;;;5.18;100.00
38289;BME280;24092;53.370;-6.588;2023-02-24T10:28:52;101189.91;;;4.33;100.00
38289;BME280;24092;53.370;-6.588;2023-02-24T10:31:30;101189.67;;;5.47;100.00
38289;BME280;24092;53.370;-6.588;2023-02-24T10:34:01;101189.57;;;5.71;100.00
38289;BME280;24092;53.370;-6.588;2023-02-24T10:36:30;101190.27;;;7.09;100.00
38289;BME280;24092;53.370;-6.588;2023-02-24T10:38:57;101186.67;;;6.49;100.00
38289;BME280;24092;53.370;-6.588;2023-02-24T10:41:24;101182.71;;;5.08;100.00
38289;BME280;24092;53.370;-6.588;2023-02-24T10:43:54;101180.41;;;3.99;100.00
38289;BME280;24092;53.370;-6.588;2023-02-24T10:46:24;101175.36;;;5.38;100.00
38289;BME280;24092;53.370;-6.588;2023-02-24T10:48:54;101172.25;;;5.57;100.00
38289;BME280;24092;53.370;-6.588;2023-02-24T10:51:22;101171.48;;;5.92;100.00
38289;BME280;24092;53.370;-6.588;2023-02-24T10:53:50;101176.55;;;5.26;100.00
38289;BME280;24092;53.370;-6.588;2023-02-24T10:56:17;101172.51;;;5.37;100.00
38289;BME280;24092;53.370;-6.588;2023-02-24T10:58:46;101169.05;;;4.16;100.00
38289;BME280;24092;53.370;-6.588;2023-02-24T11:01:15;101171.02;;;3.41;100.00
38289;BME280;24092;53.370;-6.588;2023-02-24T11:03:48;101178.27;;;2.43;100.00
38289;BME280;24092;53.370;-6.588;2023-02-24T11:06:19;101175.29;;;4.01;100.00
38289;BME280;24092;53.370;-6.588;2023-02-24T11:08:56;101175.92;;;4.06;100.00
38289;BME280;24092;53.370;-6.588;2023-02-24T11:11:29;101180.47;;;5.03;100.00
38289;BME280;24092;53.370;-6.588;2023-02-24T11:13:59;101190.43;;;3.14;100.00
38289;BME280;24092;53.370;-6.588;2023-02-24T11:16:27;101188.03;;;3.48;100.00
38289;BME280;24092;53.370;-6.588;2023-02-24T11:18:54;101189.41;;;2.48;100.00
38289;BME280;24092;53.370;-6.588;2023-02-24T11:21:24;101178.39;;;3.21;100.00
38289;BME280;24092;53.370;-6.588;2023-02-24T11:23:55;101175.55;;;5.22;100.00
38289;BME280;24092;53.370;-6.588;2023-02-24T11:26:25;101173.29;;;4.02;100.00
38289;BME280;24092;53.370;-6.588;2023-02-24T11:29:04;101173.85;;;3.16;100.00
38289;BME280;24092;53.370;-6.588;2023-02-24T11:31:45;101178.53;;;3.43;100.00
38289;BME280;24092;53.370;-6.588;2023-02-24T11:34:20;101177.08;;;3.93;100.00
38289;BME280;24092;53.370;-6.588;2023-02-24T11:36:53;101171.44;;;3.55;100.00
38289;BME280;24092;53.370;-6.588;2023-02-24T11:39:39;101169.25;;;4.31;100.00
38289;BME280;24092;53.370;-6.588;2023-02-24T11:42:13;101165.11;;;4.23;100.00
38289;BME280;24092;53.370;-6.588;2023-02-24T11:44:48;101167.66;;;3.55;100.00
38289;BME280;24092;53.370;-6.588;2023-02-24T11:47:21;101173.09;;;2.51;100.00
38289;BME280;24092;53.370;-6.588;2023-02-24T11:49:53;101174.60;;;3.50;100.00
38289;BME280;24092;53.370;-6.588;2023-02-24T11:52:25;101176.45;;;4.20;100.00
38289;BME280;24092;53.370;-6.588;2023-02-24T11:54:56;101178.57;;;2.78;100.00
38289;BME280;24092;53.370;-6.588;2023-02-24T11:57:29;101161.58;;;2.46;100.00
38289;BME280;24092;53.370;-6.588;2023-02-24T12:00:04;101158.63;;;2.99;100.00
38289;BME280;24092;53.370;-6.588;2023-02-24T12:02:38;101149.91;;;3.52;100.00
38289;BME280;24092;53.370;-6.588;2023-02-24T12:05:12;101154.72;;;1.55;100.00
38289;BME280;24092;53.370;-6.588;2023-02-24T12:07:43;101159.93;;;2.21;100.00
38289;BME280;24092;53.370;-6.588;2023-02-24T12:10:16;101151.78;;;3.24;100.00
38289;BME280;24092;53.370;-6.588;2023-02-24T12:12:50;101149.97;;;3.91;100.00
38289;BME280;24092;53.370;-6.588;2023-02-24T12:15:23;101149.08;;;4.33;100.00
38289;BME280;24092;53.370;-6.588;2023-02-24T12:17:58;101145.55;;;3.68;100.00
38289;BME280;24092;53.370;-6.588;2023-02-24T12:20:32;101139.29;;;2.68;100.00
38289;BME280;24092;53.370;-6.588;2023-02-24T12:23:06;101133.52;;;2.62;100.00
38289;BME280;24092;53.370;-6.588;2023-02-24T12:25:45;101129.57;;;4.05;100.00
38289;BME280;24092;53.370;-6.588;2023-02-24T12:28:23;101131.33;;;3.97;100.00
38289;BME280;24092;53.370;-6.588;2023-02-24T12:31:04;101130.37;;;3.10;100.00
38289;BME280;24092;53.370;-6.588;2023-02-24T12:33:45;101127.55;;;5.56;100.00
38289;BME280;24092;53.370;-6.588;2023-02-24T12:36:26;101129.33;;;6.10;100.00
38289;BME280;24092;53.370;-6.588;2023-02-24T12:39:02;101129.14;;;4.81;100.00
38289;BME280;24092;53.370;-6.588;2023-02-24T12:41:45;101130.45;;;4.66;100.00
38289;BME280;24092;53.370;-6.588;2023-02-24T12:44:25;101128.42;;;4.16;100.00
38289;BME280;24092;53.370;-6.588;2023-02-24T12:47:03;101127.82;;;4.15;100.00
38289;BME280;24092;53.370;-6.588;2023-02-24T12:52:52;101129.94;;;2.80;100.00
38289;BME280;24092;53.370;-6.588;2023-02-24T12:55:25;101136.24;;;3.43;100.00
38289;BME280;24092;53.370;-6.588;2023-02-24T12:58:01;101138.60;;;2.07;100.00
38289;BME280;24092;53.370;-6.588;2023-02-24T13:00:39;101136.26;;;3.64;100.00